Terminal Aerodrome Forecast
Issued by NWS

Home | Current Version | Previous Version | Text Only | Print | Product List | Glossary On
Versions: 1 2 3 4 5 6 7 8 9 10 11 12
000
FTUS46 KMTR 272333
TAFSTS
TAF
KSTS 272333Z 2800/2824 20010KT P6SM SCT250
     FM280400 17003KT P6SM SCT250
     FM280700 00000KT P6SM SCT250
     FM282000 20010KT P6SM SCT250=

USA.gov is the U.S. government's official web portal to all federal, state and local government web resources and services.